Terminal Aerodrome Forecast
Issued by NWS Charleston, WV

Current Version | Previous Version | Graphics & Text | Print | Product List | Glossary On
Versions: 1 2 3 4 5 6 7 8 9 10 11 12 13 14 15 16 17 18 19 20 21 22
000
FTUS41 KRLX 211500 AAA
TAFCRW
TAF AMD
KCRW 211500Z 2115/2212 33004KT 5SM BR OVC008
     FM211700 32004KT P6SM OVC015
     FM212200 30004KT P6SM BKN035
     FM220800 35008KT P6SM BKN080=

USA.gov is the U.S. government's official web portal to all federal, state and local government web resources and services.